sensor_id;sensor_type;location;lat;lon;timestamp;temperature;humidity
15926;DHT22;8062;53.882;10.642;2023-07-02T00:00:34;14.70;99.90
15926;DHT22;8062;53.882;10.642;2023-07-02T00:01:58;14.70;99.90
15926;DHT22;8062;53.882;10.642;2023-07-02T00:03:17;14.70;99.90
15926;DHT22;8062;53.882;10.642;2023-07-02T00:04:41;14.70;99.90
15926;DHT22;8062;53.882;10.642;2023-07-02T00:06:01;14.70;99.90
15926;DHT22;8062;53.882;10.642;2023-07-02T00:07:20;14.70;99.90
15926;DHT22;8062;53.882;10.642;2023-07-02T00:08:40;14.80;99.90
15926;DHT22;8062;53.882;10.642;2023-07-02T00:10:00;14.80;99.90
15926;DHT22;8062;53.882;10.642;2023-07-02T00:11:19;14.80;99.90
15926;DHT22;8062;53.882;10.642;2023-07-02T00:12:39;14.80;99.90
15926;DHT22;8062;53.882;10.642;2023-07-02T00:13:59;14.80;99.90
15926;DHT22;8062;53.882;10.642;2023-07-02T00:15:18;14.80;99.90
15926;DHT22;8062;53.882;10.642;2023-07-02T00:16:39;14.80;99.90
15926;DHT22;8062;53.882;10.642;2023-07-02T00:17:59;14.80;99.90
15926;DHT22;8062;53.882;10.642;2023-07-02T00:19:18;14.70;99.90
15926;DHT22;8062;53.882;10.642;2023-07-02T00:20:38;14.70;99.90
15926;DHT22;8062;53.882;10.642;2023-07-02T00:21:58;14.70;99.90
15926;DHT22;8062;53.882;10.642;2023-07-02T00:23:17;14.70;99.90
15926;DHT22;8062;53.882;10.642;2023-07-02T00:24:37;14.70;99.90
15926;DHT22;8062;53.882;10.642;2023-07-02T00:25:57;14.70;99.90
15926;DHT22;8062;53.882;10.642;2023-07-02T00:27:17;14.70;99.90
15926;DHT22;8062;53.882;10.642;2023-07-02T00:28:36;14.70;99.90
15926;DHT22;8062;53.882;10.642;2023-07-02T00:29:56;14.70;99.90
15926;DHT22;8062;53.882;10.642;2023-07-02T00:31:15;14.60;99.90
15926;DHT22;8062;53.882;10.642;2023-07-02T00:32:35;14.70;99.90
15926;DHT22;8062;53.882;10.642;2023-07-02T00:33:55;14.70;99.90
15926;DHT22;8062;53.882;10.642;2023-07-02T00:35:15;14.60;99.90
15926;DHT22;8062;53.882;10.642;2023-07-02T00:36:34;14.60;99.90
15926;DHT22;8062;53.882;10.642;2023-07-02T00:37:53;14.50;99.90
15926;DHT22;8062;53.882;10.642;2023-07-02T00:39:14;14.50;99.90
15926;DHT22;8062;53.882;10.642;2023-07-02T00:40:35;14.50;99.90
15926;DHT22;8062;53.882;10.642;2023-07-02T00:42:01;14.50;99.90
15926;DHT22;8062;53.882;10.642;2023-07-02T00:43:22;14.50;99.90
15926;DHT22;8062;53.882;10.642;2023-07-02T00:44:42;14.50;99.90
15926;DHT22;8062;53.882;10.642;2023-07-02T00:46:02;14.50;99.90
15926;DHT22;8062;53.882;10.642;2023-07-02T00:47:23;14.50;99.90
15926;DHT22;8062;53.882;10.642;2023-07-02T00:48:44;14.40;99.90
15926;DHT22;8062;53.882;10.642;2023-07-02T00:50:04;14.40;99.90
15926;DHT22;8062;53.882;10.642;2023-07-02T00:51:27;14.50;99.90
15926;DHT22;8062;53.882;10.642;2023-07-02T00:52:46;14.50;99.90
15926;DHT22;8062;53.882;10.642;2023-07-02T00:54:06;14.50;99.90
15926;DHT22;8062;53.882;10.642;2023-07-02T00:55:26;14.50;99.90
15926;DHT22;8062;53.882;10.642;2023-07-02T00:56:47;14.50;99.90
15926;DHT22;8062;53.882;10.642;2023-07-02T00:58:08;14.50;99.90
15926;DHT22;8062;53.882;10.642;2023-07-02T00:59:30;14.50;99.90
15926;DHT22;8062;53.882;10.642;2023-07-02T01:00:50;14.50;99.90
15926;DHT22;8062;53.882;10.642;2023-07-02T01:02:10;14.50;99.90
15926;DHT22;8062;53.882;10.642;2023-07-02T01:03:29;14.50;99.90
15926;DHT22;8062;53.882;10.642;2023-07-02T01:04:52;14.50;99.90
15926;DHT22;8062;53.882;10.642;2023-07-02T01:06:18;14.50;99.90
15926;DHT22;8062;53.882;10.642;2023-07-02T01:07:39;14.50;99.90
15926;DHT22;8062;53.882;10.642;2023-07-02T01:09:02;14.50;99.90
15926;DHT22;8062;53.882;10.642;2023-07-02T01:10:21;14.60;99.90
15926;DHT22;8062;53.882;10.642;2023-07-02T01:11:43;14.60;99.90
15926;DHT22;8062;53.882;10.642;2023-07-02T01:13:10;14.60;99.90
15926;DHT22;8062;53.882;10.642;2023-07-02T01:14:40;14.60;99.90
15926;DHT22;8062;53.882;10.642;2023-07-02T01:16:00;14.60;99.90
15926;DHT22;8062;53.882;10.642;2023-07-02T01:17:20;14.60;99.90
15926;DHT22;8062;53.882;10.642;2023-07-02T01:18:41;14.60;99.90
15926;DHT22;8062;53.882;10.642;2023-07-02T01:20:01;14.60;99.90
15926;DHT22;8062;53.882;10.642;2023-07-02T01:21:23;14.60;99.90
15926;DHT22;8062;53.882;10.642;2023-07-02T01:22:43;14.60;99.90
15926;DHT22;8062;53.882;10.642;2023-07-02T01:24:03;14.60;99.90
15926;DHT22;8062;53.882;10.642;2023-07-02T01:25:23;14.60;99.90
15926;DHT22;8062;53.882;10.642;2023-07-02T01:26:44;14.60;99.90
15926;DHT22;8062;53.882;10.642;2023-07-02T01:28:04;14.60;99.90
15926;DHT22;8062;53.882;10.642;2023-07-02T01:29:24;14.60;99.90
15926;DHT22;8062;53.882;10.642;2023-07-02T01:30:44;14.60;99.90
15926;DHT22;8062;53.882;10.642;2023-07-02T01:32:03;14.60;99.90
15926;DHT22;8062;53.882;10.642;2023-07-02T01:33:23;14.60;99.90
15926;DHT22;8062;53.882;10.642;2023-07-02T01:34:43;14.60;99.90
15926;DHT22;8062;53.882;10.642;2023-07-02T01:36:08;14.60;99.90
15926;DHT22;8062;53.882;10.642;2023-07-02T01:37:28;14.50;99.90
15926;DHT22;8062;53.882;10.642;2023-07-02T01:38:48;14.50;99.90
15926;DHT22;8062;53.882;10.642;2023-07-02T01:40:07;14.50;99.90
15926;DHT22;8062;53.882;10.642;2023-07-02T01:41:36;14.50;99.90
15926;DHT22;8062;53.882;10.642;2023-07-02T01:42:56;14.50;99.90
15926;DHT22;8062;53.882;10.642;2023-07-02T01:44:15;14.50;99.90
15926;DHT22;8062;53.882;10.642;2023-07-02T01:45:37;14.50;99.90
15926;DHT22;8062;53.882;10.642;2023-07-02T01:46:57;14.50;99.90
15926;DHT22;8062;53.882;10.642;2023-07-02T01:48:18;14.60;99.90
15926;DHT22;8062;53.882;10.642;2023-07-02T01:49:38;14.60;99.90
15926;DHT22;8062;53.882;10.642;2023-07-02T01:53:39;14.60;99.90
15926;DHT22;8062;53.882;10.642;2023-07-02T01:55:01;14.50;99.90
15926;DHT22;8062;53.882;10.642;2023-07-02T01:56:20;14.50;99.90
15926;DHT22;8062;53.882;10.642;2023-07-02T01:57:40;14.50;99.90
15926;DHT22;8062;53.882;10.642;2023-07-02T01:58:59;14.50;99.90
15926;DHT22;8062;53.882;10.642;2023-07-02T02:00:19;14.50;99.90
15926;DHT22;8062;53.882;10.642;2023-07-02T02:01:38;14.50;99.90
15926;DHT22;8062;53.882;10.642;2023-07-02T02:03:01;14.50;99.90
15926;DHT22;8062;53.882;10.642;2023-07-02T02:04:21;14.50;99.90
15926;DHT22;8062;53.882;10.642;2023-07-02T02:05:41;14.50;99.90
15926;DHT22;8062;53.882;10.642;2023-07-02T02:07:01;14.50;99.90
15926;DHT22;8062;53.882;10.642;2023-07-02T02:08:20;14.50;99.90
15926;DHT22;8062;53.882;10.642;2023-07-02T02:09:39;14.50;99.90
15926;DHT22;8062;53.882;10.642;2023-07-02T02:10:59;14.50;99.90
15926;DHT22;8062;53.882;10.642;2023-07-02T02:12:20;14.50;99.90
15926;DHT22;8062;53.882;10.642;2023-07-02T02:13:39;14.60;99.90
15926;DHT22;8062;53.882;10.642;2023-07-02T02:14:58;14.60;99.90
15926;DHT22;8062;53.882;10.642;2023-07-02T02:16:19;14.60;99.90
15926;DHT22;8062;53.882;10.642;2023-07-02T02:17:39;14.60;99.90
15926;DHT22;8062;53.882;10.642;2023-07-02T02:18:59;14.60;99.90
15926;DHT22;8062;53.882;10.642;2023-07-02T02:20:18;14.60;99.90
15926;DHT22;8062;53.882;10.642;2023-07-02T02:21:39;14.60;99.90
15926;DHT22;8062;53.882;10.642;2023-07-02T02:22:59;14.60;99.90
15926;DHT22;8062;53.882;10.642;2023-07-02T02:24:18;14.60;99.90
15926;DHT22;8062;53.882;10.642;2023-07-02T02:25:38;14.60;99.90
15926;DHT22;8062;53.882;10.642;2023-07-02T02:26:57;14.70;99.90
15926;DHT22;8062;53.882;10.642;2023-07-02T02:28:17;14.60;99.90
15926;DHT22;8062;53.882;10.642;2023-07-02T02:29:37;14.60;99.90
15926;DHT22;8062;53.882;10.642;2023-07-02T02:30:57;14.60;99.90
15926;DHT22;8062;53.882;10.642;2023-07-02T02:32:16;14.60;99.90
15926;DHT22;8062;53.882;10.642;2023-07-02T02:33:39;14.70;99.90
15926;DHT22;8062;53.882;10.642;2023-07-02T02:34:59;14.70;99.90
15926;DHT22;8062;53.882;10.642;2023-07-02T02:36:19;14.60;99.90
15926;DHT22;8062;53.882;10.642;2023-07-02T02:37:39;14.70;99.90
15926;DHT22;8062;53.882;10.642;2023-07-02T02:39:02;14.70;99.90
15926;DHT22;8062;53.882;10.642;2023-07-02T02:40:23;14.70;99.90
15926;DHT22;8062;53.882;10.642;2023-07-02T02:41:42;14.70;99.90
15926;DHT22;8062;53.882;10.642;2023-07-02T02:43:06;14.70;99.90
15926;DHT22;8062;53.882;10.642;2023-07-02T02:44:26;14.70;99.90
15926;DHT22;8062;53.882;10.642;2023-07-02T02:45:46;14.70;99.90
15926;DHT22;8062;53.882;10.642;2023-07-02T02:47:06;14.70;99.90
15926;DHT22;8062;53.882;10.642;2023-07-02T02:48:25;14.70;99.90
15926;DHT22;8062;53.882;10.642;2023-07-02T02:49:45;14.70;99.90
15926;DHT22;8062;53.882;10.642;2023-07-02T02:51:05;14.70;99.90
15926;DHT22;8062;53.882;10.642;2023-07-02T02:52:24;14.70;99.90
15926;DHT22;8062;53.882;10.642;2023-07-02T02:53:44;14.70;99.90
15926;DHT22;8062;53.882;10.642;2023-07-02T02:55:06;14.70;99.90
15926;DHT22;8062;53.882;10.642;2023-07-02T02:56:25;14.70;99.90
15926;DHT22;8062;53.882;10.642;2023-07-02T02:57:45;14.70;99.90
15926;DHT22;8062;53.882;10.642;2023-07-02T02:59:05;14.70;99.90
15926;DHT22;8062;53.882;10.642;2023-07-02T03:00:25;14.70;99.90
15926;DHT22;8062;53.882;10.642;2023-07-02T03:01:44;14.70;99.90
15926;DHT22;8062;53.882;10.642;2023-07-02T03:03:03;14.70;99.90
15926;DHT22;8062;53.882;10.642;2023-07-02T03:04:23;14.70;99.90
15926;DHT22;8062;53.882;10.642;2023-07-02T03:05:44;14.70;99.90
15926;DHT22;8062;53.882;10.642;2023-07-02T03:07:07;14.70;99.90
15926;DHT22;8062;53.882;10.642;2023-07-02T03:08:26;14.70;99.90
15926;DHT22;8062;53.882;10.642;2023-07-02T03:09:46;14.70;99.90
15926;DHT22;8062;53.882;10.642;2023-07-02T03:11:05;14.70;99.90
15926;DHT22;8062;53.882;10.642;2023-07-02T03:12:26;14.80;99.90
15926;DHT22;8062;53.882;10.642;2023-07-02T03:13:45;14.70;99.90
15926;DHT22;8062;53.882;10.642;2023-07-02T03:15:05;14.70;99.90
15926;DHT22;8062;53.882;10.642;2023-07-02T03:16:25;14.70;99.90
15926;DHT22;8062;53.882;10.642;2023-07-02T03:17:44;14.70;99.90
15926;DHT22;8062;53.882;10.642;2023-07-02T03:19:03;14.70;99.90
15926;DHT22;8062;53.882;10.642;2023-07-02T03:20:23;14.70;99.90
15926;DHT22;8062;53.882;10.642;2023-07-02T03:21:43;14.60;99.90
15926;DHT22;8062;53.882;10.642;2023-07-02T03:23:03;14.70;99.90
15926;DHT22;8062;53.882;10.642;2023-07-02T03:24:22;14.60;99.90
15926;DHT22;8062;53.882;10.642;2023-07-02T03:25:42;14.60;99.90
15926;DHT22;8062;53.882;10.642;2023-07-02T03:27:01;14.60;99.90
15926;DHT22;8062;53.882;10.642;2023-07-02T03:28:21;14.70;99.90
15926;DHT22;8062;53.882;10.642;2023-07-02T03:29:41;14.70;99.90
15926;DHT22;8062;53.882;10.642;2023-07-02T03:31:00;14.70;99.90
15926;DHT22;8062;53.882;10.642;2023-07-02T03:32:20;14.70;99.90
15926;DHT22;8062;53.882;10.642;2023-07-02T03:33:40;14.70;99.90
15926;DHT22;8062;53.882;10.642;2023-07-02T03:34:59;14.70;99.90
15926;DHT22;8062;53.882;10.642;2023-07-02T03:36:20;14.70;99.90
15926;DHT22;8062;53.882;10.642;2023-07-02T03:37:39;14.70;99.90
15926;DHT22;8062;53.882;10.642;2023-07-02T03:39:03;14.70;99.90
15926;DHT22;8062;53.882;10.642;2023-07-02T03:40:24;14.70;99.90
15926;DHT22;8062;53.882;10.642;2023-07-02T03:41:44;14.80;99.90
15926;DHT22;8062;53.882;10.642;2023-07-02T03:43:03;14.80;99.90
15926;DHT22;8062;53.882;10.642;2023-07-02T03:44:23;14.80;99.90
15926;DHT22;8062;53.882;10.642;2023-07-02T03:45:42;14.90;99.90
15926;DHT22;8062;53.882;10.642;2023-07-02T03:47:02;14.90;99.90
15926;DHT22;8062;53.882;10.642;2023-07-02T03:48:21;14.90;99.90
15926;DHT22;8062;53.882;10.642;2023-07-02T03:49:41;14.90;99.90
15926;DHT22;8062;53.882;10.642;2023-07-02T03:51:01;14.90;99.90
15926;DHT22;8062;53.882;10.642;2023-07-02T03:52:22;14.90;99.90
15926;DHT22;8062;53.882;10.642;2023-07-02T03:53:42;14.90;99.90
15926;DHT22;8062;53.882;10.642;2023-07-02T03:55:01;14.90;99.90
15926;DHT22;8062;53.882;10.642;2023-07-02T03:56:21;14.90;99.90
15926;DHT22;8062;53.882;10.642;2023-07-02T03:57:40;14.90;99.90
15926;DHT22;8062;53.882;10.642;2023-07-02T03:59:00;14.90;99.90
15926;DHT22;8062;53.882;10.642;2023-07-02T04:00:19;14.90;99.90
15926;DHT22;8062;53.882;10.642;2023-07-02T04:01:39;14.90;99.90
15926;DHT22;8062;53.882;10.642;2023-07-02T04:02:58;14.80;99.90
15926;DHT22;8062;53.882;10.642;2023-07-02T04:04:17;14.80;99.90
15926;DHT22;8062;53.882;10.642;2023-07-02T04:05:37;14.80;99.90
15926;DHT22;8062;53.882;10.642;2023-07-02T04:06:57;14.80;99.90
15926;DHT22;8062;53.882;10.642;2023-07-02T04:08:16;14.80;99.90
15926;DHT22;8062;53.882;10.642;2023-07-02T04:09:36;14.70;99.90
15926;DHT22;8062;53.882;10.642;2023-07-02T04:10:55;14.70;99.90
15926;DHT22;8062;53.882;10.642;2023-07-02T04:12:14;14.80;99.90
15926;DHT22;8062;53.882;10.642;2023-07-02T04:13:34;14.80;99.90
15926;DHT22;8062;53.882;10.642;2023-07-02T04:14:53;14.80;99.90
15926;DHT22;8062;53.882;10.642;2023-07-02T04:16:13;14.80;99.90
15926;DHT22;8062;53.882;10.642;2023-07-02T04:17:33;14.80;99.90
15926;DHT22;8062;53.882;10.642;2023-07-02T04:18:52;14.80;99.90
15926;DHT22;8062;53.882;10.642;2023-07-02T04:20:12;14.80;99.90
15926;DHT22;8062;53.882;10.642;2023-07-02T04:21:31;14.80;99.90
15926;DHT22;8062;53.882;10.642;2023-07-02T04:22:51;14.70;99.90
15926;DHT22;8062;53.882;10.642;2023-07-02T04:24:11;14.70;99.90
15926;DHT22;8062;53.882;10.642;2023-07-02T04:25:30;14.70;99.90
15926;DHT22;8062;53.882;10.642;2023-07-02T04:26:50;14.80;99.90
15926;DHT22;8062;53.882;10.642;2023-07-02T04:28:10;14.80;99.90
15926;DHT22;8062;53.882;10.642;2023-07-02T04:29:29;14.80;99.90
15926;DHT22;8062;53.882;10.642;2023-07-02T04:30:48;14.80;99.90
15926;DHT22;8062;53.882;10.642;2023-07-02T04:32:11;14.80;99.90
15926;DHT22;8062;53.882;10.642;2023-07-02T04:33:30;14.80;99.90
15926;DHT22;8062;53.882;10.642;2023-07-02T04:34:54;14.80;99.90
15926;DHT22;8062;53.882;10.642;2023-07-02T04:36:15;14.80;99.90
15926;DHT22;8062;53.882;10.642;2023-07-02T04:37:35;14.80;99.90
15926;DHT22;8062;53.882;10.642;2023-07-02T04:38:54;14.80;99.90
15926;DHT22;8062;53.882;10.642;2023-07-02T04:40:14;14.80;99.90
15926;DHT22;8062;53.882;10.642;2023-07-02T04:41:34;14.80;99.90
15926;DHT22;8062;53.882;10.642;2023-07-02T04:42:53;14.80;99.90
15926;DHT22;8062;53.882;10.642;2023-07-02T04:44:19;14.90;99.90
15926;DHT22;8062;53.882;10.642;2023-07-02T04:45:41;14.90;99.90
15926;DHT22;8062;53.882;10.642;2023-07-02T04:47:03;14.90;99.90
15926;DHT22;8062;53.882;10.642;2023-07-02T04:48:23;14.90;99.90
15926;DHT22;8062;53.882;10.642;2023-07-02T04:49:43;15.00;99.90
15926;DHT22;8062;53.882;10.642;2023-07-02T04:51:03;15.10;99.90
15926;DHT22;8062;53.882;10.642;2023-07-02T04:52:22;15.10;99.90
15926;DHT22;8062;53.882;10.642;2023-07-02T04:53:42;15.10;99.90
15926;DHT22;8062;53.882;10.642;2023-07-02T04:55:02;15.10;99.90
15926;DHT22;8062;53.882;10.642;2023-07-02T04:56:22;15.10;99.90
15926;DHT22;8062;53.882;10.642;2023-07-02T04:57:41;15.10;99.90
15926;DHT22;8062;53.882;10.642;2023-07-02T04:59:01;15.10;99.90
15926;DHT22;8062;53.882;10.642;2023-07-02T05:00:21;15.20;99.90
15926;DHT22;8062;53.882;10.642;2023-07-02T05:01:41;15.20;99.90
15926;DHT22;8062;53.882;10.642;2023-07-02T05:03:01;15.20;99.90
15926;DHT22;8062;53.882;10.642;2023-07-02T05:04:20;15.20;99.90
15926;DHT22;8062;53.882;10.642;2023-07-02T05:05:40;15.30;99.90
15926;DHT22;8062;53.882;10.642;2023-07-02T05:07:00;15.30;99.90
15926;DHT22;8062;53.882;10.642;2023-07-02T05:08:19;15.30;99.90
15926;DHT22;8062;53.882;10.642;2023-07-02T05:09:39;15.40;99.90
15926;DHT22;8062;53.882;10.642;2023-07-02T05:10:58;15.40;99.90
15926;DHT22;8062;53.882;10.642;2023-07-02T05:12:19;15.50;99.90
15926;DHT22;8062;53.882;10.642;2023-07-02T05:13:39;15.50;99.90
15926;DHT22;8062;53.882;10.642;2023-07-02T05:14:58;15.50;99.90
15926;DHT22;8062;53.882;10.642;2023-07-02T05:16:18;15.50;99.90
15926;DHT22;8062;53.882;10.642;2023-07-02T05:17:37;15.50;99.90
15926;DHT22;8062;53.882;10.642;2023-07-02T05:18:56;15.60;99.90
15926;DHT22;8062;53.882;10.642;2023-07-02T05:20:16;15.60;99.90
15926;DHT22;8062;53.882;10.642;2023-07-02T05:21:35;15.60;99.90
15926;DHT22;8062;53.882;10.642;2023-07-02T05:22:55;15.60;99.90
15926;DHT22;8062;53.882;10.642;2023-07-02T05:24:15;15.70;99.90
15926;DHT22;8062;53.882;10.642;2023-07-02T05:25:34;15.70;99.90
15926;DHT22;8062;53.882;10.642;2023-07-02T05:26:54;15.70;99.90
15926;DHT22;8062;53.882;10.642;2023-07-02T05:28:13;15.80;99.90
15926;DHT22;8062;53.882;10.642;2023-07-02T05:29:33;15.90;99.90
15926;DHT22;8062;53.882;10.642;2023-07-02T05:30:52;16.00;99.90
15926;DHT22;8062;53.882;10.642;2023-07-02T05:32:12;16.10;99.90
15926;DHT22;8062;53.882;10.642;2023-07-02T05:33:31;16.10;99.90
15926;DHT22;8062;53.882;10.642;2023-07-02T05:34:52;16.00;99.90
15926;DHT22;8062;53.882;10.642;2023-07-02T05:36:12;16.00;99.90
15926;DHT22;8062;53.882;10.642;2023-07-02T05:37:31;15.90;99.90
15926;DHT22;8062;53.882;10.642;2023-07-02T05:38:51;15.90;99.90
15926;DHT22;8062;53.882;10.642;2023-07-02T05:40:10;15.80;99.90
15926;DHT22;8062;53.882;10.642;2023-07-02T05:41:30;15.80;99.90
15926;DHT22;8062;53.882;10.642;2023-07-02T05:42:50;15.90;99.90
15926;DHT22;8062;53.882;10.642;2023-07-02T05:44:09;15.90;99.90
15926;DHT22;8062;53.882;10.642;2023-07-02T05:45:29;16.00;99.90
15926;DHT22;8062;53.882;10.642;2023-07-02T05:46:48;16.10;99.90
15926;DHT22;8062;53.882;10.642;2023-07-02T05:48:08;16.10;99.90
15926;DHT22;8062;53.882;10.642;2023-07-02T05:49:28;16.20;99.90
15926;DHT22;8062;53.882;10.642;2023-07-02T05:50:47;16.30;99.90
15926;DHT22;8062;53.882;10.642;2023-07-02T05:52:07;16.40;99.90
15926;DHT22;8062;53.882;10.642;2023-07-02T05:53:26;16.50;99.90
15926;DHT22;8062;53.882;10.642;2023-07-02T05:54:46;16.50;99.90
15926;DHT22;8062;53.882;10.642;2023-07-02T05:56:05;16.60;99.90
15926;DHT22;8062;53.882;10.642;2023-07-02T05:57:25;16.60;99.90
15926;DHT22;8062;53.882;10.642;2023-07-02T05:58:45;16.60;99.90
15926;DHT22;8062;53.882;10.642;2023-07-02T06:00:06;16.70;99.90
15926;DHT22;8062;53.882;10.642;2023-07-02T06:01:31;16.70;99.90
15926;DHT22;8062;53.882;10.642;2023-07-02T06:02:50;16.60;99.90
15926;DHT22;8062;53.882;10.642;2023-07-02T06:04:10;16.60;99.90
15926;DHT22;8062;53.882;10.642;2023-07-02T06:05:30;16.70;99.90
15926;DHT22;8062;53.882;10.642;2023-07-02T06:06:49;16.80;99.90
15926;DHT22;8062;53.882;10.642;2023-07-02T06:08:09;17.00;99.90
15926;DHT22;8062;53.882;10.642;2023-07-02T06:09:28;17.10;99.90
15926;DHT22;8062;53.882;10.642;2023-07-02T06:10:48;17.10;99.90
15926;DHT22;8062;53.882;10.642;2023-07-02T06:12:08;17.10;99.90
15926;DHT22;8062;53.882;10.642;2023-07-02T06:13:28;17.10;99.90
15926;DHT22;8062;53.882;10.642;2023-07-02T06:14:47;17.10;99.90
15926;DHT22;8062;53.882;10.642;2023-07-02T06:16:07;17.20;99.90
15926;DHT22;8062;53.882;10.642;2023-07-02T06:17:26;17.30;99.90
15926;DHT22;8062;53.882;10.642;2023-07-02T06:18:46;17.40;99.90
15926;DHT22;8062;53.882;10.642;2023-07-02T06:20:06;17.50;99.90
15926;DHT22;8062;53.882;10.642;2023-07-02T06:21:25;17.50;99.90
15926;DHT22;8062;53.882;10.642;2023-07-02T06:22:49;17.50;99.90
15926;DHT22;8062;53.882;10.642;2023-07-02T06:24:08;17.40;99.90
15926;DHT22;8062;53.882;10.642;2023-07-02T06:25:27;17.40;99.90
15926;DHT22;8062;53.882;10.642;2023-07-02T06:26:47;17.40;99.90
15926;DHT22;8062;53.882;10.642;2023-07-02T06:28:06;17.40;99.90
15926;DHT22;8062;53.882;10.642;2023-07-02T06:29:26;17.50;99.90
15926;DHT22;8062;53.882;10.642;2023-07-02T06:30:47;17.50;99.90
15926;DHT22;8062;53.882;10.642;2023-07-02T06:32:07;17.60;99.90
15926;DHT22;8062;53.882;10.642;2023-07-02T06:33:27;17.60;99.90
15926;DHT22;8062;53.882;10.642;2023-07-02T06:34:46;17.70;99.90
15926;DHT22;8062;53.882;10.642;2023-07-02T06:36:06;17.70;99.90
15926;DHT22;8062;53.882;10.642;2023-07-02T06:37:25;17.80;99.90
15926;DHT22;8062;53.882;10.642;2023-07-02T06:38:45;17.80;99.90
15926;DHT22;8062;53.882;10.642;2023-07-02T06:40:05;18.00;99.90
15926;DHT22;8062;53.882;10.642;2023-07-02T06:41:25;18.10;99.90
15926;DHT22;8062;53.882;10.642;2023-07-02T06:42:45;18.20;99.90
15926;DHT22;8062;53.882;10.642;2023-07-02T06:44:05;18.40;99.90
15926;DHT22;8062;53.882;10.642;2023-07-02T06:45:24;18.50;99.90
15926;DHT22;8062;53.882;10.642;2023-07-02T06:46:46;18.70;99.90
15926;DHT22;8062;53.882;10.642;2023-07-02T06:48:05;18.60;99.90
15926;DHT22;8062;53.882;10.642;2023-07-02T06:49:25;18.60;99.90
15926;DHT22;8062;53.882;10.642;2023-07-02T06:50:44;18.70;99.90
15926;DHT22;8062;53.882;10.642;2023-07-02T06:52:05;18.80;99.90
15926;DHT22;8062;53.882;10.642;2023-07-02T06:53:24;18.70;99.90
15926;DHT22;8062;53.882;10.642;2023-07-02T06:54:44;18.80;99.90
15926;DHT22;8062;53.882;10.642;2023-07-02T06:56:04;18.90;99.90
15926;DHT22;8062;53.882;10.642;2023-07-02T06:57:23;18.90;99.90
15926;DHT22;8062;53.882;10.642;2023-07-02T06:58:43;18.90;99.90
15926;DHT22;8062;53.882;10.642;2023-07-02T07:00:03;18.80;99.90
15926;DHT22;8062;53.882;10.642;2023-07-02T07:01:23;19.00;99.90
15926;DHT22;8062;53.882;10.642;2023-07-02T07:02:42;19.10;99.90
15926;DHT22;8062;53.882;10.642;2023-07-02T07:04:02;19.20;99.90
15926;DHT22;8062;53.882;10.642;2023-07-02T07:05:22;19.30;99.90
15926;DHT22;8062;53.882;10.642;2023-07-02T07:06:42;19.60;99.90
15926;DHT22;8062;53.882;10.642;2023-07-02T07:08:02;19.90;99.90
15926;DHT22;8062;53.882;10.642;2023-07-02T07:09:22;20.20;99.90
15926;DHT22;8062;53.882;10.642;2023-07-02T07:10:41;20.20;99.90
15926;DHT22;8062;53.882;10.642;2023-07-02T07:12:01;20.40;99.90
15926;DHT22;8062;53.882;10.642;2023-07-02T07:13:20;20.40;99.90
15926;DHT22;8062;53.882;10.642;2023-07-02T07:14:39;20.40;99.90
15926;DHT22;8062;53.882;10.642;2023-07-02T07:15:59;20.50;99.90
15926;DHT22;8062;53.882;10.642;2023-07-02T07:17:18;20.40;99.90
15926;DHT22;8062;53.882;10.642;2023-07-02T07:18:38;20.10;99.90
15926;DHT22;8062;53.882;10.642;2023-07-02T07:19:57;19.80;99.90
15926;DHT22;8062;53.882;10.642;2023-07-02T07:21:17;19.50;99.90
15926;DHT22;8062;53.882;10.642;2023-07-02T07:22:37;19.10;99.90
15926;DHT22;8062;53.882;10.642;2023-07-02T07:23:56;19.30;99.90
15926;DHT22;8062;53.882;10.642;2023-07-02T07:25:16;19.40;99.90
15926;DHT22;8062;53.882;10.642;2023-07-02T07:26:36;19.60;99.90
15926;DHT22;8062;53.882;10.642;2023-07-02T07:27:55;19.80;99.90
15926;DHT22;8062;53.882;10.642;2023-07-02T07:29:15;20.00;99.90
15926;DHT22;8062;53.882;10.642;2023-07-02T07:30:34;20.10;99.90
15926;DHT22;8062;53.882;10.642;2023-07-02T07:31:54;20.50;99.90
15926;DHT22;8062;53.882;10.642;2023-07-02T07:33:13;20.60;99.20
15926;DHT22;8062;53.882;10.642;2023-07-02T07:34:33;20.60;99.10
15926;DHT22;8062;53.882;10.642;2023-07-02T07:35:53;20.40;99.40
15926;DHT22;8062;53.882;10.642;2023-07-02T07:37:12;20.60;99.90
15926;DHT22;8062;53.882;10.642;2023-07-02T07:38:32;20.90;98.90
15926;DHT22;8062;53.882;10.642;2023-07-02T07:39:51;21.00;98.70
15926;DHT22;8062;53.882;10.642;2023-07-02T07:41:11;21.10;97.20
15926;DHT22;8062;53.882;10.642;2023-07-02T07:42:31;20.90;98.40
15926;DHT22;8062;53.882;10.642;2023-07-02T07:43:50;20.50;97.00
15926;DHT22;8062;53.882;10.642;2023-07-02T07:45:11;20.20;97.40
15926;DHT22;8062;53.882;10.642;2023-07-02T07:46:31;19.70;98.20
15926;DHT22;8062;53.882;10.642;2023-07-02T07:47:50;19.40;99.30
15926;DHT22;8062;53.882;10.642;2023-07-02T07:49:10;19.00;99.40
15926;DHT22;8062;53.882;10.642;2023-07-02T07:50:29;18.60;99.90
15926;DHT22;8062;53.882;10.642;2023-07-02T07:51:49;18.40;99.90
15926;DHT22;8062;53.882;10.642;2023-07-02T07:53:08;18.20;99.90
15926;DHT22;8062;53.882;10.642;2023-07-02T07:54:28;18.00;99.90
15926;DHT22;8062;53.882;10.642;2023-07-02T07:55:48;17.90;99.90
15926;DHT22;8062;53.882;10.642;2023-07-02T07:57:07;17.80;99.90
15926;DHT22;8062;53.882;10.642;2023-07-02T07:58:27;17.60;99.90
15926;DHT22;8062;53.882;10.642;2023-07-02T07:59:47;17.50;99.90
15926;DHT22;8062;53.882;10.642;2023-07-02T08:01:06;17.40;99.90
15926;DHT22;8062;53.882;10.642;2023-07-02T08:02:25;17.30;99.90
15926;DHT22;8062;53.882;10.642;2023-07-02T08:03:45;17.20;99.90
15926;DHT22;8062;53.882;10.642;2023-07-02T08:05:05;17.10;99.90
15926;DHT22;8062;53.882;10.642;2023-07-02T08:06:24;17.20;99.90
15926;DHT22;8062;53.882;10.642;2023-07-02T08:07:44;17.30;99.90
15926;DHT22;8062;53.882;10.642;2023-07-02T08:09:04;17.40;99.40
15926;DHT22;8062;53.882;10.642;2023-07-02T08:10:23;17.50;99.20
15926;DHT22;8062;53.882;10.642;2023-07-02T08:11:44;17.60;98.70
15926;DHT22;8062;53.882;10.642;2023-07-02T08:13:03;17.70;99.50
15926;DHT22;8062;53.882;10.642;2023-07-02T08:14:23;17.70;99.30
15926;DHT22;8062;53.882;10.642;2023-07-02T08:15:42;17.70;98.90
15926;DHT22;8062;53.882;10.642;2023-07-02T08:17:02;17.60;99.00
15926;DHT22;8062;53.882;10.642;2023-07-02T08:18:21;17.60;98.50
15926;DHT22;8062;53.882;10.642;2023-07-02T08:19:40;17.50;99.10
15926;DHT22;8062;53.882;10.642;2023-07-02T08:21:00;17.60;99.90
15926;DHT22;8062;53.882;10.642;2023-07-02T08:22:19;17.70;99.40
15926;DHT22;8062;53.882;10.642;2023-07-02T08:23:41;17.70;99.20
15926;DHT22;8062;53.882;10.642;2023-07-02T08:25:01;17.90;99.90
15926;DHT22;8062;53.882;10.642;2023-07-02T08:26:21;18.00;99.90
15926;DHT22;8062;53.882;10.642;2023-07-02T08:27:41;18.10;99.30